Estación Meteorológica Peña el Pijo (Robertgarden) [ 09/22/18 22:52:44 CEST ]

Fecha Hora Presion(HPa) Temp (°C) Humedad % Rocio (°C) Viento ( m/s) Direccion Lluvia 1Hora(mm) Lluvia 24H(mm) LLuvia Total(mm)
2018-Jan-01 01:01:50 1018.000 6.8 65 0.7 4.4 NNW     27.97
2018-Jan-01 02:06:15 1018.600 6.3 66 0.4         27.97
2018-Jan-01 03:01:41 1019.700 5.6 67 -0.1         27.97
2018-Jan-01 04:01:55 1019.500 5.2 68 -0.2         27.97
2018-Jan-01 05:01:46 1019.800 3.3 71 -1.4         27.97
2018-Jan-01 06:02:05 1020.200 1.3 74 -2.9         27.97
2018-Jan-01 07:01:37 1020.100 1.9 77 -1.7         27.97
2018-Jan-01 08:01:58 1019.900 2.2 75 -1.8         27.97
2018-Jan-01 09:01:42 1020.600 0.7 74 -3.4         27.97
2018-Jan-01 10:01:58 1020.800 5.2 65 -0.9         27.97
2018-Jan-01 11:01:33 1021.100 10.5 44 -1.3         27.97
2018-Jan-01 12:01:51 1021.300 12.2 27 -6.4 3.1 NNE     27.97
2018-Jan-01 13:01:46 1020.800 12.7 25 -7.1 0.9 WNW     27.97
2018-Jan-01 14:01:38 1019.400 14.5 19 -9.1         27.97
2018-Jan-01 15:01:35 1019.100 13.9 19 -9.5 0.8 SW     27.97
2018-Jan-01 16:01:38 1018.600 13.1 21 -8.7         27.97
2018-Jan-01 17:01:39 1019.200 10.2 24 -9.7         27.97
2018-Jan-01 18:01:42 1018.700 8.5 28 -9.1         27.97
2018-Jan-01 19:01:22 1019.000 6.6 34 -8.3         27.97
2018-Jan-01 20:01:18 1020.300 7.1 38 -6.7         27.97
2018-Jan-01 21:01:27 1020.400 6.5 46 -4.3 1.9 WNW     27.97
2018-Jan-01 22:01:16 1020.200 5.8 52 -3.3         27.97
2018-Jan-01 23:01:23 1020.400 5.4 62 -1.3 2.0 NW     27.97

Temperatura Máxima:14°    Temperatura Mínima:
Presión Máxima:1021.300 Hpa    Presión Mínima:1018.000 Hpa


Volver